Portada
METAR-TAF:

METAR-TAF

Aeropuertos :

Aeropuerto Internacional de Lamezia Terme

Lamezia Terme, Italia

latitud: 38-54N, longitud: 016-15E, altitud: 15 m

Observación

El informe se hizo hace 1 hora y 13 minutos, a las 11:50 UTC
Viento 11 kt del oeste
Temperatura 15°C
Humedad 55%
Presión 1026 hPa
Visibilidad 10 km o más
Escasas nubes a una altura de 2500 ft
Nubes dispersas a una altura de 4000 ft

METAR: LICA 171150Z 27011KT 9999 FEW025 SCT040 15/06 Q1026

Hora: 14:03 (13:03 UTC)

Pronóstico

El informe se hizo hace 2 horas y 3 minutos, a las 11:00 UTC
Pronóstico válido del 17 a las 12 UTC al 18 a las 12 UTC
Viento 8 kt del oeste
Visibilidad 10 km o más
Nubes dispersas a una altura de 2000 ft

TAF: LICA 171100Z 1712/1812 27008KT 9999 SCT020

Observaciones y pronósticos meteorológicos de más de 4000 aeropuertos (mensajes METAR y TAF).

Los puntos amarillos y rojos representan las estaciones disponibles.

Ponga el ratón en el punto deseado para ver el nombre de la estación.

Haga clic para ver las observaciones y los pronósticos meteorológicos.

Para cambiar el mapa : haga clic en los botones verdes con una cruz de color negro para hacer un zoom, en el botón verde con un guión para alejar o en las flechas verdes para mapas adyacentes.


METAR-TAF: